Terminal Aerodrome Forecast
Issued by NWS

Home | Current Version | Previous Version | Text Only | Print | Product List | Glossary On
Versions: 1 2 3 4 5 6 7 8 9 10 11 12 13 14 15
000
FTAK31 PAFA 121139
TAFASC
TAF
PASC 121139Z 1212/1312 07023KT 5SM -SHSN BR SCT015 BKN035 OVC070
     FM121700 07020KT 1 1/2SM -SN BR OVC015=

USA.gov is the U.S. government's official web portal to all federal, state and local government web resources and services.